createdAt,value
2023-04-23T00:01:58.380Z,54.12
2023-04-23T00:04:26.543Z,54.37
2023-04-23T00:06:53.640Z,54.30
2023-04-23T00:09:23.097Z,55.03
2023-04-23T00:11:50.449Z,54.96
2023-04-23T00:14:17.216Z,55.08
2023-04-23T00:16:44.164Z,55.01
2023-04-23T00:19:10.921Z,55.54
2023-04-23T00:21:37.675Z,55.34
2023-04-23T00:24:04.799Z,55.23
2023-04-23T00:26:31.440Z,55.46
2023-04-23T00:28:58.164Z,55.47
2023-04-23T00:31:27.150Z,55.32
2023-04-23T00:33:54.448Z,56.64
2023-04-23T00:36:21.176Z,57.55
2023-04-23T00:38:48.156Z,57.74
2023-04-23T00:41:15.383Z,57.81
2023-04-23T00:43:42.285Z,57.47
2023-04-23T00:46:09.134Z,57.50
2023-04-23T00:48:36.433Z,57.63
2023-04-23T00:51:06.790Z,57.87
2023-04-23T00:53:34.183Z,58.47
2023-04-23T00:56:04.232Z,58.66
2023-04-23T00:58:31.768Z,59.65
2023-04-23T01:00:59.079Z,61.07
2023-04-23T01:03:27.322Z,61.18
2023-04-23T01:05:54.040Z,61.37
2023-04-23T01:08:24.288Z,61.46
2023-04-23T01:10:52.207Z,62.10
2023-04-23T01:13:20.780Z,61.85
2023-04-23T01:15:47.439Z,61.68
2023-04-23T01:18:14.919Z,61.67
2023-04-23T01:20:43.746Z,61.93
2023-04-23T01:23:10.778Z,62.35
2023-04-23T01:25:37.938Z,62.52
2023-04-23T01:28:06.840Z,63.14
2023-04-23T01:30:33.870Z,63.16
2023-04-23T01:33:01.852Z,63.08
2023-04-23T01:35:28.883Z,63.28
2023-04-23T01:37:57.420Z,63.87
2023-04-23T01:40:24.002Z,63.79
2023-04-23T01:42:52.252Z,63.65
2023-04-23T01:45:21.782Z,64.38
2023-04-23T01:47:48.653Z,64.36
2023-04-23T01:50:15.388Z,64.14
2023-04-23T01:52:42.450Z,64.06
2023-04-23T01:55:09.667Z,64.68
2023-04-23T01:57:36.632Z,64.84
2023-04-23T02:00:13.638Z,64.84
2023-04-23T02:02:43.150Z,64.70
2023-04-23T02:05:13.459Z,65.01
2023-04-23T02:07:40.335Z,65.34
2023-04-23T02:10:08.214Z,66.08
2023-04-23T02:12:35.109Z,66.65
2023-04-23T02:15:01.673Z,65.95
2023-04-23T02:17:29.422Z,65.98
2023-04-23T02:19:56.099Z,66.83
2023-04-23T02:22:25.156Z,66.87
2023-04-23T02:24:53.068Z,66.57
2023-04-23T02:27:21.382Z,66.56
2023-04-23T02:29:49.174Z,66.76
2023-04-23T02:32:16.016Z,66.91
2023-04-23T02:34:43.065Z,67.81
2023-04-23T02:37:10.028Z,67.85
2023-04-23T02:39:39.259Z,68.91
2023-04-23T02:42:06.322Z,69.18
2023-04-23T02:44:33.196Z,69.11
2023-04-23T02:47:00.147Z,69.08
2023-04-23T02:49:26.853Z,69.24
2023-04-23T02:51:53.493Z,68.96
2023-04-23T02:54:23.970Z,69.48
2023-04-23T02:56:51.512Z,69.45
2023-04-23T02:59:18.133Z,69.39
2023-04-23T03:01:45.796Z,69.52
2023-04-23T03:04:12.478Z,69.66
2023-04-23T03:06:40.557Z,69.24
2023-04-23T03:09:07.563Z,69.37
2023-04-23T03:11:34.153Z,69.53
2023-04-23T03:14:01.780Z,69.57
2023-04-23T03:16:29.776Z,69.33
2023-04-23T03:18:56.454Z,69.33
2023-04-23T03:21:23.027Z,69.76
2023-04-23T03:23:50.290Z,69.49
2023-04-23T03:26:16.957Z,69.86
2023-04-23T03:28:43.792Z,69.62
2023-04-23T03:31:10.892Z,69.80
2023-04-23T03:33:37.718Z,69.88
2023-04-23T03:36:04.530Z,70.13
2023-04-23T03:38:31.185Z,70.01
2023-04-23T03:40:57.798Z,70.18
2023-04-23T03:43:25.716Z,70.01
2023-04-23T03:45:52.570Z,70.16
2023-04-23T03:48:21.686Z,69.98
2023-04-23T03:50:48.573Z,70.40
2023-04-23T03:53:15.240Z,70.21
2023-04-23T03:55:41.816Z,69.94
2023-04-23T03:58:09.731Z,70.53
2023-04-23T04:00:36.888Z,70.36
2023-04-23T04:03:04.464Z,70.80
2023-04-23T04:05:31.402Z,70.78
2023-04-23T04:07:59.047Z,71.16
2023-04-23T04:10:26.854Z,71.01
2023-04-23T04:12:55.218Z,71.13
2023-04-23T04:15:22.000Z,71.76
2023-04-23T04:17:48.757Z,71.52
2023-04-23T04:20:15.741Z,72.12
2023-04-23T04:22:42.400Z,72.10
2023-04-23T04:25:09.766Z,73.19
2023-04-23T04:27:37.706Z,74.11
2023-04-23T04:30:05.609Z,74.65
2023-04-23T04:32:33.389Z,75.00
2023-04-23T04:35:01.202Z,75.16
2023-04-23T04:37:29.865Z,75.73
2023-04-23T04:39:57.151Z,75.29
2023-04-23T04:42:24.890Z,75.23
2023-04-23T04:44:53.090Z,75.64
2023-04-23T04:47:21.893Z,75.75
2023-04-23T04:49:50.064Z,75.48
2023-04-23T04:52:21.182Z,75.59
2023-04-23T04:54:53.755Z,75.38
2023-04-23T04:57:23.208Z,75.79
2023-04-23T04:59:54.045Z,75.30
2023-04-23T05:02:23.572Z,76.09
2023-04-23T05:04:54.837Z,75.97
2023-04-23T05:07:21.837Z,75.93
2023-04-23T05:09:48.654Z,76.34
2023-04-23T05:12:15.397Z,76.70
2023-04-23T05:14:42.116Z,76.56
2023-04-23T05:17:08.869Z,76.58
2023-04-23T05:19:35.505Z,76.58
2023-04-23T05:22:03.795Z,76.69
2023-04-23T05:24:31.553Z,76.85
2023-04-23T05:26:58.454Z,76.63
2023-04-23T05:29:25.132Z,77.32
2023-04-23T05:31:52.099Z,77.31
2023-04-23T05:34:18.873Z,78.41
2023-04-23T05:36:45.579Z,78.98
2023-04-23T05:39:12.223Z,80.04
2023-04-23T05:41:38.959Z,80.11
2023-04-23T05:44:05.659Z,80.27
2023-04-23T05:46:32.354Z,80.80
2023-04-23T05:48:59.005Z,80.82
2023-04-23T05:51:25.879Z,81.56
2023-04-23T05:53:52.615Z,81.71
2023-04-23T05:56:21.694Z,81.92
2023-04-23T05:58:48.792Z,81.92
2023-04-23T06:01:15.743Z,82.01
2023-04-23T06:03:45.648Z,82.07
2023-04-23T06:06:12.991Z,82.29
2023-04-23T06:08:39.700Z,82.31
2023-04-23T06:11:06.817Z,82.60
2023-04-23T06:13:34.980Z,83.09
2023-04-23T06:16:01.629Z,83.17
2023-04-23T06:18:28.234Z,82.99
2023-04-23T06:20:56.959Z,83.35
2023-04-23T06:23:23.720Z,83.41
2023-04-23T06:25:53.513Z,83.67
2023-04-23T06:28:21.580Z,83.82
2023-04-23T06:30:48.335Z,83.91
2023-04-23T06:33:15.983Z,84.07
2023-04-23T06:35:42.602Z,84.38
2023-04-23T06:38:09.245Z,84.67
2023-04-23T06:40:36.954Z,84.65
2023-04-23T06:43:05.302Z,84.87
2023-04-23T06:45:33.270Z,84.89
2023-04-23T06:48:00.514Z,85.09
2023-04-23T06:50:27.755Z,85.37
2023-04-23T06:52:56.365Z,85.64
2023-04-23T06:55:26.284Z,85.56
2023-04-23T06:57:53.491Z,85.44
2023-04-23T07:00:24.003Z,85.77
2023-04-23T07:02:51.284Z,85.58
2023-04-23T07:05:21.625Z,85.76
2023-04-23T07:07:48.263Z,85.85
2023-04-23T07:10:16.921Z,85.90
2023-04-23T07:12:44.753Z,86.07
2023-04-23T07:15:11.643Z,86.56
2023-04-23T07:17:38.411Z,86.40
2023-04-23T07:20:06.626Z,86.60
2023-04-23T07:22:33.278Z,86.75
2023-04-23T07:25:04.557Z,86.78
2023-04-23T07:27:31.382Z,86.54
2023-04-23T07:29:58.321Z,86.86
2023-04-23T07:32:28.149Z,86.98
2023-04-23T07:34:56.267Z,86.61
2023-04-23T07:37:23.104Z,86.36
2023-04-23T07:39:50.217Z,86.51
2023-04-23T07:42:16.788Z,86.83
2023-04-23T07:44:43.433Z,86.45
2023-04-23T07:47:10.110Z,86.60
2023-04-23T07:49:36.683Z,86.93
2023-04-23T07:52:03.391Z,86.77
2023-04-23T07:54:29.935Z,86.88
2023-04-23T07:56:57.388Z,86.54
2023-04-23T07:59:23.955Z,86.81
2023-04-23T08:01:53.365Z,86.76
2023-04-23T08:04:23.131Z,86.77
2023-04-23T08:06:50.502Z,86.69
2023-04-23T08:09:17.070Z,86.82
2023-04-23T08:11:44.069Z,86.80
2023-04-23T08:14:11.234Z,86.87
2023-04-23T08:16:39.057Z,86.71
2023-04-23T08:19:06.685Z,86.64
2023-04-23T08:21:33.997Z,86.67
2023-04-23T08:24:03.197Z,86.49
2023-04-23T08:26:30.711Z,86.31
2023-04-23T08:28:57.541Z,86.52
2023-04-23T08:31:26.911Z,86.22
2023-04-23T08:33:54.653Z,86.64
2023-04-23T08:36:21.539Z,86.61
2023-04-23T08:38:48.154Z,86.34
2023-04-23T08:41:18.138Z,85.98
2023-04-23T08:43:51.225Z,85.85
2023-04-23T08:46:21.558Z,85.95
2023-04-23T08:48:52.300Z,85.82
2023-04-23T08:51:21.526Z,85.73
2023-04-23T08:53:56.089Z,85.28
2023-04-23T08:56:24.251Z,85.21
2023-04-23T08:58:56.391Z,85.02
2023-04-23T09:01:24.108Z,84.90
2023-04-23T09:03:54.598Z,84.85
2023-04-23T09:06:21.994Z,84.89
2023-04-23T09:08:51.086Z,84.84
2023-04-23T09:11:21.114Z,84.94
2023-04-23T09:13:47.720Z,84.83
2023-04-23T09:16:14.479Z,84.71
2023-04-23T09:18:42.385Z,84.64
2023-04-23T09:21:09.191Z,84.80
2023-04-23T09:23:39.832Z,84.25
2023-04-23T09:26:07.111Z,83.98
2023-04-23T09:28:37.835Z,84.02
2023-04-23T09:31:07.833Z,84.10
2023-04-23T09:33:37.710Z,83.82
2023-04-23T09:36:11.903Z,83.56
2023-04-23T09:38:41.244Z,83.39
2023-04-23T09:41:24.761Z,83.69
2023-04-23T09:43:55.122Z,83.41
2023-04-23T09:46:38.461Z,82.99
2023-04-23T09:49:10.369Z,83.14
2023-04-23T09:51:39.496Z,83.05
2023-04-23T09:54:27.146Z,82.84
2023-04-23T09:57:00.919Z,82.59
2023-04-23T09:59:46.841Z,82.18
2023-04-23T10:02:16.809Z,80.91
2023-04-23T10:04:44.366Z,81.89
2023-04-23T10:09:44.300Z,80.58
2023-04-23T10:12:27.925Z,79.96
2023-04-23T10:14:59.694Z,79.53
2023-04-23T10:17:27.047Z,79.86
2023-04-23T10:19:55.787Z,79.06
2023-04-23T10:22:23.109Z,78.06
2023-04-23T10:24:58.714Z,78.06
2023-04-23T10:27:44.562Z,78.13
2023-04-23T10:30:17.621Z,77.59
2023-04-23T10:32:45.126Z,77.75
2023-04-23T10:35:11.888Z,75.47
2023-04-23T10:37:41.774Z,74.78
2023-04-23T10:40:12.955Z,73.94
2023-04-23T10:42:47.413Z,73.57
2023-04-23T10:47:47.904Z,71.51
2023-04-23T10:50:26.926Z,71.40
2023-04-23T10:52:54.714Z,71.96
2023-04-23T10:55:29.864Z,71.83
2023-04-23T10:58:01.296Z,70.53
2023-04-23T11:00:42.177Z,70.63
2023-04-23T11:03:31.557Z,69.81
2023-04-23T11:06:02.258Z,68.43
2023-04-23T11:08:32.137Z,66.82
2023-04-23T11:11:00.538Z,66.63
2023-04-23T11:13:29.077Z,66.68
2023-04-23T11:16:23.252Z,66.81
2023-04-23T11:19:12.500Z,65.89
2023-04-23T11:22:01.647Z,66.07
2023-04-23T11:24:43.043Z,65.34
2023-04-23T11:27:14.872Z,65.01
2023-04-23T11:29:43.283Z,64.02
2023-04-23T11:32:13.292Z,62.08
2023-04-23T11:34:43.262Z,61.65
2023-04-23T11:37:14.837Z,62.00
2023-04-23T11:39:42.991Z,60.68
2023-04-23T11:42:10.891Z,60.51
2023-04-23T11:44:41.570Z,61.43
2023-04-23T11:47:11.289Z,58.96
2023-04-23T11:49:42.964Z,60.52
2023-04-23T11:52:10.592Z,59.26
2023-04-23T11:54:41.111Z,59.13
2023-04-23T11:57:08.534Z,58.26
2023-04-23T11:59:35.200Z,56.00
2023-04-23T12:02:01.985Z,56.71
2023-04-23T12:04:30.825Z,55.36
2023-04-23T12:06:59.062Z,54.72
2023-04-23T12:09:27.889Z,55.95
2023-04-23T12:11:58.334Z,54.26
2023-04-23T12:14:30.246Z,53.35
2023-04-23T12:16:58.808Z,54.16
2023-04-23T12:19:31.490Z,54.08
2023-04-23T12:22:02.840Z,52.80
2023-04-23T12:24:31.602Z,52.73
2023-04-23T12:27:00.815Z,52.12
2023-04-23T12:29:30.305Z,52.95
2023-04-23T12:32:00.362Z,51.58
2023-04-23T12:34:27.015Z,51.31
2023-04-23T12:36:55.865Z,50.47
2023-04-23T12:39:30.428Z,50.14
2023-04-23T12:42:05.712Z,50.91
2023-04-23T12:44:36.811Z,49.61
2023-04-23T12:47:07.525Z,49.71
2023-04-23T12:49:35.928Z,49.44
2023-04-23T12:52:04.096Z,47.67
2023-04-23T12:54:32.769Z,47.27
2023-04-23T12:57:02.773Z,48.95
2023-04-23T12:59:30.117Z,47.97
2023-04-23T13:01:57.292Z,48.61
2023-04-23T13:04:24.027Z,47.07
2023-04-23T13:06:51.745Z,47.45
2023-04-23T13:09:18.379Z,45.88
2023-04-23T13:11:46.996Z,47.02
2023-04-23T13:14:13.519Z,46.65
2023-04-23T13:16:40.200Z,46.60
2023-04-23T13:19:06.893Z,47.33
2023-04-23T13:21:33.736Z,46.58
2023-04-23T13:24:00.400Z,45.23
2023-04-23T13:26:32.986Z,44.82
2023-04-23T13:29:01.065Z,45.14
2023-04-23T13:31:28.720Z,46.95
2023-04-23T13:33:55.911Z,46.64
2023-04-23T13:36:22.686Z,43.48
2023-04-23T13:38:52.701Z,43.15
2023-04-23T13:41:21.593Z,43.65
2023-04-23T13:43:48.176Z,44.24
2023-04-23T13:46:14.878Z,43.93
2023-04-23T13:48:42.431Z,44.04
2023-04-23T13:51:21.898Z,43.89
2023-04-23T13:53:59.192Z,44.30
2023-04-23T13:56:27.323Z,44.30
2023-04-23T13:59:17.472Z,43.33
2023-04-23T14:01:52.228Z,42.07
2023-04-23T14:04:24.113Z,41.68
2023-04-23T14:06:58.702Z,42.00
2023-04-23T14:09:25.549Z,41.62
2023-04-23T14:11:56.405Z,41.45
2023-04-23T14:14:23.002Z,42.62
2023-04-23T14:16:52.347Z,42.33
2023-04-23T14:19:24.116Z,41.72
2023-04-23T14:21:52.898Z,41.09
2023-04-23T14:24:27.991Z,43.31
2023-04-23T14:26:54.670Z,43.12
2023-04-23T14:29:30.391Z,42.99
2023-04-23T14:31:57.112Z,43.41
2023-04-23T14:34:28.147Z,41.50
2023-04-23T14:36:54.979Z,42.42
2023-04-23T14:39:22.838Z,42.76
2023-04-23T14:41:51.888Z,42.95
2023-04-23T14:44:21.637Z,42.78
2023-04-23T14:46:52.294Z,43.20
2023-04-23T14:49:23.721Z,43.80
2023-04-23T14:51:59.472Z,43.35
2023-04-23T14:54:26.063Z,42.37
2023-04-23T14:56:55.599Z,42.41
2023-04-23T14:59:23.360Z,42.90
2023-04-23T15:01:50.480Z,43.04
2023-04-23T15:04:17.290Z,43.93
2023-04-23T15:06:44.129Z,43.89
2023-04-23T15:09:10.784Z,42.81
2023-04-23T15:11:38.917Z,41.75
2023-04-23T15:14:18.252Z,42.36
2023-04-23T15:16:48.886Z,43.15
2023-04-23T15:19:18.287Z,43.25
2023-04-23T15:21:45.744Z,42.82
2023-04-23T15:24:15.360Z,42.68
2023-04-23T15:26:42.938Z,42.46
2023-04-23T15:29:10.336Z,42.16
2023-04-23T15:31:37.945Z,41.93
2023-04-23T15:34:07.309Z,41.90
2023-04-23T15:36:35.739Z,42.17
2023-04-23T15:39:02.508Z,41.99
2023-04-23T15:41:29.218Z,42.29
2023-04-23T15:43:56.636Z,42.39
2023-04-23T15:46:23.398Z,42.97
2023-04-23T15:48:50.098Z,44.04
2023-04-23T15:51:17.008Z,43.78
2023-04-23T15:53:43.933Z,43.40
2023-04-23T15:56:10.655Z,43.65
2023-04-23T15:58:38.311Z,43.41
2023-04-23T16:01:07.225Z,43.93
2023-04-23T16:03:34.481Z,42.83
2023-04-23T16:06:01.458Z,43.32
2023-04-23T16:08:28.228Z,43.24
2023-04-23T16:10:57.090Z,42.34
2023-04-23T16:13:24.741Z,43.24
2023-04-23T16:15:54.234Z,44.20
2023-04-23T16:18:23.717Z,43.82
2023-04-23T16:20:53.654Z,44.75
2023-04-23T16:23:23.044Z,45.10
2023-04-23T16:25:52.108Z,44.53
2023-04-23T16:28:18.790Z,44.44
2023-04-23T16:30:46.964Z,44.03
2023-04-23T16:33:13.839Z,44.26
2023-04-23T16:35:40.554Z,44.81
2023-04-23T16:38:11.066Z,45.30
2023-04-23T16:40:39.879Z,45.98
2023-04-23T16:43:06.858Z,46.99
2023-04-23T16:45:34.977Z,47.88
2023-04-23T16:48:01.538Z,48.13
2023-04-23T16:50:28.501Z,47.94
2023-04-23T16:52:56.637Z,48.13
2023-04-23T16:55:23.284Z,47.72
2023-04-23T16:57:53.713Z,48.45
2023-04-23T17:00:23.849Z,49.54
2023-04-23T17:02:53.813Z,50.44
2023-04-23T17:05:25.079Z,51.24
2023-04-23T17:07:54.750Z,52.16
2023-04-23T17:10:21.911Z,53.12
2023-04-23T17:12:51.123Z,53.49
2023-04-23T17:15:18.906Z,54.22
2023-04-23T17:17:45.698Z,54.58
2023-04-23T17:20:12.372Z,54.79
2023-04-23T17:22:40.185Z,55.62
2023-04-23T17:25:08.589Z,56.08
2023-04-23T17:27:35.242Z,56.65
2023-04-23T17:30:02.081Z,56.91
2023-04-23T17:32:28.902Z,56.67
2023-04-23T17:35:06.458Z,56.98
2023-04-23T17:37:36.115Z,56.86
2023-04-23T17:40:03.264Z,56.85
2023-04-23T17:42:30.473Z,57.15
2023-04-23T17:44:57.213Z,57.85
2023-04-23T17:47:24.979Z,58.35
2023-04-23T17:49:54.641Z,58.87
2023-04-23T17:52:22.128Z,59.40
2023-04-23T17:54:48.928Z,59.74
2023-04-23T17:57:15.818Z,60.08
2023-04-23T17:59:42.784Z,60.45
2023-04-23T18:02:09.932Z,60.79
2023-04-23T18:04:37.822Z,61.51
2023-04-23T18:07:04.461Z,62.14
2023-04-23T18:09:31.086Z,62.16
2023-04-23T18:11:59.137Z,62.92
2023-04-23T18:14:25.969Z,63.30
2023-04-23T18:16:53.824Z,63.39
2023-04-23T18:19:24.394Z,63.48
2023-04-23T18:21:54.988Z,64.05
2023-04-23T18:24:24.667Z,63.98
2023-04-23T18:26:52.212Z,64.11
2023-04-23T18:29:18.869Z,64.36
2023-04-23T18:31:45.681Z,64.70
2023-04-23T18:34:18.563Z,65.30
2023-04-23T18:36:56.924Z,65.13
2023-04-23T18:39:23.655Z,65.49
2023-04-23T18:41:53.606Z,65.87
2023-04-23T18:44:24.423Z,66.45
2023-04-23T18:46:52.341Z,66.71
2023-04-23T18:49:40.861Z,67.01
2023-04-23T18:52:07.737Z,67.03
2023-04-23T18:54:34.489Z,67.20
2023-04-23T18:57:02.295Z,67.51
2023-04-23T18:59:28.977Z,67.91
2023-04-23T19:01:56.793Z,67.57
2023-04-23T19:04:23.811Z,67.99
2023-04-23T19:06:53.012Z,68.07
2023-04-23T19:09:22.047Z,68.26
2023-04-23T19:11:48.920Z,68.48
2023-04-23T19:14:16.237Z,68.40
2023-04-23T19:16:42.891Z,69.15
2023-04-23T19:19:09.667Z,69.40
2023-04-23T19:21:36.667Z,69.80
2023-04-23T19:24:03.682Z,70.36
2023-04-23T19:26:30.341Z,70.56
2023-04-23T19:28:58.007Z,71.02
2023-04-23T19:31:24.908Z,71.41
2023-04-23T19:33:51.757Z,71.35
2023-04-23T19:36:18.464Z,71.66
2023-04-23T19:38:45.885Z,71.86
2023-04-23T19:41:12.585Z,72.09
2023-04-23T19:43:40.420Z,72.57
2023-04-23T19:46:07.219Z,72.49
2023-04-23T19:48:33.856Z,72.41
2023-04-23T19:51:00.588Z,72.80
2023-04-23T19:53:27.742Z,72.99
2023-04-23T19:55:54.490Z,72.83
2023-04-23T19:58:22.376Z,72.54
2023-04-23T20:00:49.601Z,72.85
2023-04-23T20:03:16.382Z,73.13
2023-04-23T20:05:46.108Z,72.70
2023-04-23T20:08:15.474Z,72.82
2023-04-23T20:10:42.950Z,73.06
2023-04-23T20:13:09.674Z,73.45
2023-04-23T20:15:36.753Z,73.42
2023-04-23T20:18:03.912Z,73.69
2023-04-23T20:20:30.610Z,72.74
2023-04-23T20:22:57.327Z,73.50
2023-04-23T20:25:25.730Z,73.34
2023-04-23T20:27:53.045Z,73.43
2023-04-23T20:30:20.235Z,73.23
2023-04-23T20:32:46.947Z,73.51
2023-04-23T20:35:13.814Z,73.64
2023-04-23T20:37:40.882Z,73.54
2023-04-23T20:40:08.290Z,73.87
2023-04-23T20:42:39.112Z,73.76
2023-04-23T20:45:08.096Z,73.99
2023-04-23T20:47:34.987Z,73.89
2023-04-23T20:50:01.625Z,73.96
2023-04-23T20:52:29.015Z,73.58
2023-04-23T20:54:55.675Z,73.70
2023-04-23T20:57:22.385Z,73.54
2023-04-23T20:59:48.994Z,73.69
2023-04-23T21:02:16.099Z,73.67
2023-04-23T21:04:43.321Z,73.87
2023-04-23T21:07:11.190Z,74.61
2023-04-23T21:09:37.820Z,74.50
2023-04-23T21:12:04.990Z,75.12
2023-04-23T21:14:32.979Z,75.46
2023-04-23T21:16:59.616Z,75.67
2023-04-23T21:19:26.149Z,75.21
2023-04-23T21:21:52.949Z,75.05
2023-04-23T21:24:21.908Z,75.08
2023-04-23T21:26:48.866Z,76.15
2023-04-23T21:29:15.498Z,76.29
2023-04-23T21:31:53.411Z,76.22
2023-04-23T21:34:23.109Z,76.74
2023-04-23T21:36:50.332Z,77.43
2023-04-23T21:39:17.050Z,77.22
2023-04-23T21:41:44.881Z,77.01
2023-04-23T21:44:11.535Z,76.81
2023-04-23T21:46:38.389Z,76.67
2023-04-23T21:49:05.085Z,77.69
2023-04-23T21:51:37.023Z,77.99
2023-04-23T21:54:05.641Z,77.77
2023-04-23T21:56:32.453Z,78.09
2023-04-23T21:58:59.058Z,78.14
2023-04-23T22:01:26.741Z,78.27
2023-04-23T22:03:53.535Z,78.03
2023-04-23T22:06:23.650Z,78.24
2023-04-23T22:08:54.603Z,78.48
2023-04-23T22:11:24.240Z,78.81
2023-04-23T22:13:51.419Z,79.43
2023-04-23T22:16:28.085Z,79.02
2023-04-23T22:18:56.955Z,79.16
2023-04-23T22:21:23.779Z,79.31
2023-04-23T22:23:53.413Z,78.79
2023-04-23T22:26:20.758Z,79.20
2023-04-23T22:28:47.587Z,79.28
2023-04-23T22:31:14.168Z,79.11
2023-04-23T22:33:40.821Z,78.81
2023-04-23T22:36:07.548Z,78.66
2023-04-23T22:38:34.848Z,79.06
2023-04-23T22:41:02.135Z,79.09
2023-04-23T22:43:28.849Z,78.95
2023-04-23T22:45:55.640Z,78.74
2023-04-23T22:48:23.912Z,78.74
2023-04-23T22:50:51.573Z,79.48
2023-04-23T22:53:21.777Z,79.36
2023-04-23T22:55:49.761Z,79.46
2023-04-23T22:58:16.525Z,79.40
2023-04-23T23:00:43.216Z,79.44
2023-04-23T23:03:12.069Z,79.36
2023-04-23T23:05:38.783Z,79.25
2023-04-23T23:08:06.788Z,79.29
2023-04-23T23:10:33.672Z,79.06
2023-04-23T23:13:01.359Z,78.71
2023-04-23T23:15:27.941Z,78.72
2023-04-23T23:17:54.653Z,78.11
2023-04-23T23:20:21.680Z,78.35
2023-04-23T23:22:48.621Z,77.89
2023-04-23T23:25:16.153Z,77.88
2023-04-23T23:27:43.893Z,77.89
2023-04-23T23:30:10.866Z,77.89
2023-04-23T23:32:37.715Z,77.72
2023-04-23T23:35:04.764Z,77.72
2023-04-23T23:37:33.423Z,77.57
2023-04-23T23:39:59.986Z,77.58
2023-04-23T23:42:27.655Z,77.12
2023-04-23T23:44:54.301Z,77.29
2023-04-23T23:47:21.331Z,77.13
2023-04-23T23:49:48.074Z,77.08
2023-04-23T23:52:16.757Z,76.98
2023-04-23T23:54:47.447Z,76.99
2023-04-23T23:57:14.143Z,76.98
2023-04-23T23:59:41.318Z,77.11
